Latest Weather Observations for Williamtown

IDN60901

Issued at 2:31 pm EST Tuesday 26 July 2016 (issued every 10 minutes, with the page automatically refreshed every 10 minutes)

About weather observations | Map of Sydney area stations | Latest observations for Sydney area | Other Formats
Station Details ID: 061078 Name: WILLIAMTOWN RAAF Lat: -32.79 Lon: 151.84 Height: 9.0 m
Data from the previous 72 hours. | See also: Recent months at Williamtown
Date/Time
EST
Temp
°C
App
Temp
°C
Dew
Point
°C
Rel
Hum
%
Delta-T
°C
Wind Press
QNH
hPa
Press
MSL
hPa
Rain since
9am
mm
Dir  Spd
km/h
Gust
km/h
Spd
kts
Gust
kts
26/02:00pm 19.2 11.3 2.2 32 7.8 NW 33 54 18 29 1014.4 1014.4 0.0
26/01:56pm 18.8 10.8 1.8 32 7.7 NW 33 54 18 29 1014.4 1014.4 0.0
26/01:30pm 18.9 10.6 2.0 32 7.7 NW 35 48 19 26 1014.5 1014.5 0.0
26/01:03pm 18.7 10.7 1.6 32 7.7 WNW 33 52 18 28 1014.9 1014.9 0.0
26/01:00pm 19.0 10.3 2.2 32 7.7 WNW 37 52 20 28 1014.9 1014.9 0.0
26/12:43pm 17.8 9.1 1.8 34 7.2 WNW 37 56 20 30 1015.2 1015.2 0.0
26/12:30pm 18.1 9.8 2.3 34 7.2 NW 35 50 19 27 1015.4 1015.4 0.0
26/12:18pm 18.2 10.3 2.1 34 7.3 WNW 33 52 18 28 1015.5 1015.5 0.0
26/12:00pm 17.8 9.1 2.1 35 7.1 WNW 37 54 20 29 1015.7 1015.7 0.0
26/11:30am 17.7 9.4 2.2 35 7.0 WNW 35 50 19 27 1016.2 1016.2 0.0
26/11:00am 17.0 9.1 2.4 37 6.6 WNW 33 43 18 23 1016.7 1016.7 0.0
26/10:30am 16.3 9.3 2.2 38 6.3 WNW 28 41 15 22 1017.0 1017.0 0.0
26/10:00am 15.8 8.4 2.0 39 6.1 WNW 30 39 16 21 1017.2 1017.2 0.0
26/09:34am 15.3 7.4 2.2 41 5.8 WNW 33 52 18 28 1017.1 1017.1 0.0
26/09:30am 14.9 6.6 1.9 41 5.7 WNW 35 52 19 28 1017.1 1017.1 0.0
26/09:00am 14.2 6.2 1.8 43 5.4 WNW 33 48 18 26 1017.3 1017.3 0.0
26/08:33am 13.7 6.0 2.3 46 5.0 WNW 32 54 17 29 1017.1 1017.1 0.0
26/08:30am 13.7 5.9 2.0 45 5.1 WNW 32 48 17 26 1017.2 1017.2 0.0
26/08:00am 12.7 5.3 2.0 48 4.6 NW 30 43 16 23 1017.0 1017.0 0.0
26/07:30am 12.0 5.4 2.0 50 4.3 NW 26 35 14 19 1016.8 1016.8 0.0
26/07:00am 11.3 4.3 2.2 53 3.9 NW 28 44 15 24 1016.4 1016.4 0.0
26/06:30am 11.4 3.6 2.0 52 4.0 NW 32 41 17 22 1016.0 1016.0 0.0
26/06:00am 11.3 3.5 1.9 52 4.0 NW 32 43 17 23 1015.7 1015.7 0.0
26/05:46am 11.2 3.5 2.3 54 3.8 NW 32 50 17 27 1015.6 1015.6 0.0
26/05:30am 11.5 3.2 2.2 53 4.0 NW 35 48 19 26 1015.5 1015.5 0.0
26/05:00am 11.5 3.8 2.2 53 4.0 NW 32 43 17 23 1015.2 1015.2 0.0
26/04:31am 11.3 3.6 2.2 53 3.9 NW 32 50 17 27 1015.0 1015.0 0.0
26/04:30am 11.6 3.7 2.0 51 4.1 NW 33 50 18 27 1015.0 1015.0 0.0
26/04:00am 11.4 4.5 2.3 53 3.9 WNW 28 39 15 21 1014.9 1014.9 0.0
26/03:30am 11.5 4.5 2.2 53 4.0 WNW 28 37 15 20 1015.1 1015.1 0.0
26/03:00am 11.5 4.2 2.2 53 4.0 WNW 30 39 16 21 1014.8 1014.8 0.0
26/02:30am 11.5 4.2 2.2 53 4.0 WNW 30 39 16 21 1014.8 1014.8 0.0
26/02:00am 11.5 3.8 2.5 54 3.9 NW 32 44 17 24 1015.2 1015.2 0.0
26/01:30am 11.4 4.2 2.9 56 3.7 NW 30 43 16 23 1015.5 1015.5 0.0
26/01:00am 11.5 5.4 2.7 54 3.8 NW 24 32 13 17 1015.6 1015.6 0.0
26/12:30am 10.9 4.5 3.4 60 3.3 WNW 26 33 14 18 1016.0 1016.0 0.0
26/12:00am 11.1 4.7 3.3 58 3.4 WNW 26 37 14 20 1015.9 1015.9 0.0
 
Date/Time
EST
Temp
°C
App
Temp
°C
Dew
Point
°C
Rel
Hum
%
Delta-T
°C
Wind Press
QNH
hPa
Press
MSL
hPa
Rain since
9am
mm
Dir  Spd
km/h
Gust
km/h
Spd
kts
Gust
kts
25/11:30pm 11.4 2.9 3.2 57 3.6 NW 37 52 20 28 1015.5 1015.5 0.0
25/11:00pm 11.9 4.1 2.7 53 4.0 WNW 33 50 18 27 1015.3 1015.3 0.0
25/10:30pm 12.1 4.5 2.7 52 4.1 WNW 32 50 17 27 1015.1 1015.1 0.0
25/10:00pm 12.2 7.0 2.5 51 4.2 WNW 19 32 10 17 1015.3 1015.3 0.0
25/09:30pm 11.6 8.0 2.9 55 3.8 WNW 11 28 6 15 1015.2 1015.2 0.0
25/09:00pm 12.5 6.0 2.7 51 4.3 NW 26 48 14 26 1015.3 1015.3 0.0
25/08:57pm 12.4 4.8 2.8 52 4.2 NW 32 50 17 27 1015.2 1015.2 0.0
25/08:30pm 12.0 4.4 2.8 53 4.0 WNW 32 41 17 22 1015.4 1015.4 0.0
25/08:00pm 12.5 5.6 2.7 51 4.3 NW 28 37 15 20 1015.2 1015.2 0.0
25/07:30pm 12.7 4.1 2.7 50 4.4 WNW 37 48 20 26 1014.8 1014.8 0.0
25/07:00pm 12.9 6.0 2.3 48 4.6 NW 28 35 15 19 1014.9 1014.9 0.0
25/06:30pm 12.9 5.0 2.3 48 4.6 NW 33 48 18 26 1014.5 1014.5 0.0
25/06:00pm 13.1 6.5 2.3 48 4.7 WNW 26 35 14 19 1014.3 1014.3 0.0
25/05:30pm 13.6 5.9 2.2 46 5.0 WNW 32 43 17 23 1014.0 1014.0 0.0
25/05:00pm 14.3 6.9 1.7 42 5.5 WNW 30 46 16 25 1013.6 1013.6 0.0
25/04:30pm 15.2 7.2 1.5 39 6.0 WNW 33 43 18 23 1013.4 1013.4 0.0
25/04:00pm 15.8 7.0 1.4 37 6.3 NW 37 54 20 29 1013.4 1013.4 0.0
25/03:54pm 15.8 7.3 1.1 37 6.4 NW 35 54 19 29 1013.3 1013.3 0.0
25/03:30pm 16.2 8.4 1.4 36 6.5 WNW 32 44 17 24 1013.2 1013.2 0.0
25/03:07pm 16.3 7.1 1.3 36 6.6 WNW 39 61 21 33 1013.0 1013.0 0.0
25/03:00pm 16.6 6.6 1.1 35 6.8 WNW 43 56 23 30 1013.0 1013.0 0.0
25/02:30pm 16.7 6.7 0.9 34 6.9 WNW 43 61 23 33 1012.9 1012.9 0.0
25/02:00pm 16.8 6.8 1.1 34 6.9 WNW 43 69 23 37 1012.7 1012.7 0.0
25/01:39pm 16.5 4.8 0.9 34 6.8 NW 52 70 28 38 1012.7 1012.7 0.0
25/01:30pm 16.9 5.9 0.9 34 7.0 WNW 48 65 26 35 1012.7 1012.7 0.0
25/01:10pm 16.5 4.8 0.9 34 6.8 NW 52 70 28 38 1013.0 1013.0 0.0
25/01:00pm 16.7 5.8 1.3 35 6.8 NW 48 61 26 33 1012.9 1012.9 0.0
25/12:35pm 16.9 7.0 1.6 35 6.8 WNW 43 61 23 33 1013.1 1013.1 0.0
25/12:30pm 16.3 6.4 1.6 37 6.5 WNW 43 57 23 31 1013.2 1013.2 0.0
25/12:00pm 15.6 4.2 0.8 36 6.4 NW 50 63 27 34 1014.0 1014.0 0.0
25/11:30am 15.8 4.8 0.8 36 6.5 WNW 48 63 26 34 1014.9 1014.9 0.0
25/11:00am 15.7 5.6 0.6 36 6.5 WNW 43 61 23 33 1015.0 1015.0 0.0
25/10:39am 14.9 5.6 0.3 37 6.2 NW 39 57 21 31 1015.0 1015.0 0.0
25/10:30am 15.1 5.1 1.3 39 6.0 WNW 43 57 23 31 1014.9 1014.9 0.0
25/10:00am 14.1 2.8 1.3 41 5.5 NW 50 63 27 34 1014.8 1014.8 0.0
25/09:30am 13.9 3.9 2.3 45 5.1 WNW 44 63 24 34 1015.3 1015.3 0.0
25/09:20am 13.7 4.3 2.3 46 5.0 WNW 41 59 22 32 1015.3 1015.3 0.0
25/09:00am 13.4 4.1 3.1 49 4.6 NW 41 57 22 31 1014.6 1014.6 0.0
25/08:40am 13.0 4.1 3.1 51 4.4 NW 39 57 21 31 1014.5 1014.5 0.0
25/08:30am 12.7 5.0 3.5 53 4.1 NW 33 44 18 24 1014.4 1014.4 0.0
25/08:18am 12.3 4.3 3.8 56 3.8 NW 35 54 19 29 1014.4 1014.4 0.0
25/08:00am 11.4 4.0 4.0 60 3.3 NW 32 41 17 22 1014.5 1014.5 0.0
25/07:30am 10.1 3.1 4.0 66 2.7 WNW 30 37 16 20 1014.4 1014.4 0.0
25/07:00am 9.0 2.0 4.2 72 2.1 WNW 30 37 16 20 1013.9 1013.9 0.0
25/06:30am 8.8 2.2 4.2 73 2.0 WNW 28 33 15 18 1013.4 1013.4 0.0
25/06:00am 8.7 2.1 4.4 74 1.9 WNW 28 35 15 19 1013.1 1013.1 0.0
25/05:30am 8.0 1.8 4.3 77 1.6 WNW 26 33 14 18 1012.8 1012.8 0.0
25/05:00am 6.4 2.2 3.6 82 1.2 NNW 15 19 8 10 1012.7 1012.7 0.0
25/04:30am 6.0 1.3 3.1 82 1.2 NNW 17 19 9 10 1012.7 1012.7 0.0
25/04:00am 3.6 -0.6 1.8 88 0.7 NNW 13 17 7 9 1012.6 1012.6 0.0
25/03:30am 3.5 0.1 2.0 90 0.6 NNE 9 11 5 6 1012.7 1012.7 0.0
25/03:00am 4.7 1.3 1.9 82 1.1 NW 9 11 5 6 1013.0 1013.0 0.0
25/02:30am 5.6 1.8 1.9 77 1.5 NW 11 11 6 6 1013.0 1013.0 0.0
25/02:00am 5.1 1.0 2.1 81 1.2 NW 13 17 7 9 1012.9 1012.9 0.0
25/01:30am 4.5 1.5 2.0 84 1.0 NW 7 11 4 6 1013.1 1013.1 0.0
25/01:00am 3.9 1.0 2.4 90 0.6 WNW 7 9 4 5 1013.3 1013.3 0.0
25/12:30am 5.9 2.6 2.5 79 1.4 NNW 9 13 5 7 1013.3 1013.3 0.0
25/12:00am 6.3 1.5 0.4 66 2.3 N 15 20 8 11 1013.8 1013.8 0.0
 
Date/Time
EST
Temp
°C
App
Temp
°C
Dew
Point
°C
Rel
Hum
%
Delta-T
°C
Wind Press
QNH
hPa
Press
MSL
hPa
Rain since
9am
mm
Dir  Spd
km/h
Gust
km/h
Spd
kts
Gust
kts
24/11:30pm 6.6 1.4 -0.1 62 2.6 N 17 19 9 10 1014.1 1014.1 0.0
24/11:00pm 5.6 1.2 0.1 68 2.1 N 13 17 7 9 1014.5 1014.5 0.0
24/10:30pm 5.3 1.3 0.4 70 1.9 N 11 15 6 8 1014.5 1014.5 0.0
24/10:00pm 5.8 1.6 1.5 74 1.7 NNE 13 17 7 9 1014.9 1014.9 0.0
24/09:30pm 4.8 2.6 3.1 89 0.7 N 4 7 2 4 1015.5 1015.5 0.0
24/09:00pm 4.2 1.1 1.4 82 1.1 NNW 7 9 4 5 1015.6 1015.6 0.0
24/08:30pm 4.5 1.5 1.7 82 1.1 NW 7 9 4 5 1015.5 1015.5 0.0
24/08:00pm 5.9 2.7 0.8 70 2.0 NW 7 9 4 5 1015.6 1015.6 0.0
24/07:30pm 6.1 2.6 1.0 70 2.0 NNW 9 11 5 6 1015.3 1015.3 0.0
24/07:00pm 6.8 3.3 1.0 66 2.3 WNW 9 11 5 6 1015.1 1015.1 0.0
24/06:30pm 8.5 4.8 -0.1 54 3.4 NW 9 11 5 6 1014.8 1014.8 0.0
24/06:00pm 8.7 4.6 0.1 55 3.4 WNW 11 15 6 8 1014.3 1014.3 0.0
24/05:30pm 9.9 5.3 -1.1 46 4.3 NW 13 17 7 9 1014.0 1014.0 0.0
24/05:00pm 10.5 4.7 -1.6 43 4.7 NW 19 26 10 14 1013.8 1013.8 0.0
24/04:30pm 11.1 5.0 -2.4 39 5.2 WNW 20 28 11 15 1013.7 1013.7 0.0
24/04:00pm 11.4 5.3 -2.3 38 5.3 WNW 20 28 11 15 1013.7 1013.7 0.0
24/03:30pm 11.4 5.9 -1.9 39 5.2 W 17 30 9 16 1013.8 1013.8 0.0
24/03:00pm 11.7 4.7 -3.8 33 5.8 WNW 24 32 13 17 1013.7 1013.7 0.0
24/02:50pm 11.8 4.8 -3.2 35 5.7 WNW 24 33 13 18 1013.7 1013.7 0.0
24/02:32pm 12.2 5.6 -2.9 35 5.8 WNW 22 30 12 16 1013.5 1013.5 0.0
24/02:30pm 12.1 5.9 -3.0 35 5.8 WNW 20 28 11 15 1013.5 1013.5 0.0
24/02:00pm 11.8 4.7 -4.0 33 5.9 WNW 24 32 13 17 1013.4 1013.4 0.0
24/01:30pm 11.6 4.5 -4.4 32 5.9 NW 24 33 13 18 1013.9 1013.9 0.0
24/01:00pm 11.7 3.9 -3.4 34 5.7 WNW 28 39 15 21 1015.1 1015.1 0.0
24/12:30pm 11.5 3.8 -3.3 35 5.6 WNW 28 39 15 21 1015.5 1015.5 0.0
24/12:00pm 11.4 5.3 -2.7 37 5.4 WNW 20 28 11 15 1016.1 1016.1 0.0
24/11:30am 11.0 5.4 -3.0 37 5.3 WNW 17 26 9 14 1016.6 1016.6 0.0
24/11:00am 11.3 5.0 -1.0 42 4.9 WNW 22 28 12 15 1016.8 1016.8 0.0
24/10:30am 10.7 4.0 -1.3 43 4.7 WNW 24 30 13 16 1017.0 1017.0 0.0
24/10:00am 10.4 4.7 -0.4 47 4.3 WNW 19 24 10 13 1016.8 1016.8 0.0
24/09:30am 10.2 4.8 1.3 54 3.7 WNW 19 26 10 14 1016.9 1016.9 0.0
24/09:00am 8.8 3.8 1.2 59 3.1 NW 17 20 9 11 1016.7 1016.7 0.0
24/08:30am 8.4 3.2 0.0 55 3.3 WNW 17 22 9 12 1016.6 1016.6 0.0
24/08:00am 7.5 3.0 2.2 69 2.2 WNW 15 19 8 10 1016.2 1016.2 0.0
24/07:30am 3.7 1.7 2.2 90 0.6 NW 2 9 1 5 1016.2 1016.2 0.0
24/07:00am 3.1 0.6 1.8 91 0.5 NW 4 9 2 5 1016.1 1016.1 0.0
24/06:30am 4.0 0.6 1.7 85 0.9 WNW 9 13 5 7 1016.1 1016.1 0.0
24/06:00am 4.7 0.9 1.7 81 1.2 NW 11 13 6 7 1016.4 1016.4 0.0
24/05:30am 5.9 2.1 1.6 74 1.7 NW 11 13 6 7 1015.9 1015.9 0.0
24/05:00am 6.4 2.0 2.8 78 1.5 NW 15 22 8 12 1015.6 1015.6 0.0
24/04:30am 6.8 2.8 3.0 77 1.6 NW 13 19 7 10 1015.3 1015.3 0.0
24/04:00am 6.6 2.3 3.0 78 1.5 WNW 15 19 8 10 1015.1 1015.1 0.0
24/03:30am 7.5 2.8 3.0 73 1.9 WNW 17 19 9 10 1015.0 1015.0 0.0
24/03:00am 7.4 3.4 2.9 73 1.9 WNW 13 15 7 8 1015.3 1015.3 0.0
24/02:30am 8.4 4.4 3.0 69 2.3 WNW 13 17 7 9 1015.0 1015.0 0.0
24/02:00am 8.9 4.6 3.0 66 2.5 WNW 15 20 8 11 1014.7 1014.7 0.0
24/01:30am 9.1 4.3 2.7 64 2.7 WNW 17 22 9 12 1014.8 1014.8 0.0
24/01:00am 9.5 4.3 2.7 62 2.9 WNW 19 26 10 14 1014.7 1014.7 0.0
24/12:30am 9.9 5.1 2.4 59 3.2 WNW 17 24 9 13 1014.4 1014.4 0.0
24/12:00am 9.8 4.4 2.5 60 3.1 WNW 20 26 11 14 1014.4 1014.4 0.0
 
Date/Time
EST
Temp
°C
App
Temp
°C
Dew
Point
°C
Rel
Hum
%
Delta-T
°C
Wind Press
QNH
hPa
Press
MSL
hPa
Rain since
9am
mm
Dir  Spd
km/h
Gust
km/h
Spd
kts
Gust
kts
23/11:30pm 10.0 4.6 2.2 58 3.3 WNW 20 28 11 15 1014.1 1014.1 0.0
23/11:00pm 10.3 3.7 2.0 56 3.5 WNW 26 35 14 19 1013.5 1013.5 0.0
23/10:30pm 10.8 4.9 1.8 54 3.8 WNW 22 33 12 18 1013.7 1013.7 0.0
23/10:00pm 11.0 4.7 1.8 53 3.9 WNW 24 32 13 17 1013.1 1013.1 0.0
23/09:30pm 11.1 4.4 1.6 52 4.0 WNW 26 35 14 19 1012.7 1012.7 0.0
23/09:00pm 11.3 6.3 1.3 50 4.2 W 17 26 9 14 1012.1 1012.1 0.0
23/08:30pm 11.8 5.8 1.1 48 4.5 W 22 32 12 17 1012.0 1012.0 0.0
23/08:00pm 12.3 6.7 0.9 45 4.8 WNW 20 32 11 17 1011.3 1011.3 0.0
23/07:30pm 12.4 4.4 0.7 44 4.9 WNW 32 50 17 27 1010.6 1010.6 0.0
23/07:05pm 12.9 4.3 0.5 42 5.2 WNW 35 54 19 29 1010.0 1010.0 0.0
23/07:00pm 12.9 4.7 0.5 42 5.2 WNW 33 46 18 25 1009.9 1009.9 0.0
23/06:40pm 13.2 5.2 0.6 42 5.3 WNW 32 50 17 27 1009.9 1009.9 0.0
23/06:30pm 13.3 4.0 0.5 41 5.4 WNW 39 52 21 28 1009.6 1009.6 0.0
23/06:00pm 13.9 4.5 0.1 39 5.8 WNW 39 56 21 30 1009.1 1009.1 0.0
23/05:53pm 13.7 4.4 0.4 40 5.6 WNW 39 57 21 31 1009.0 1009.0 0.0
23/05:30pm 14.3 4.5 0.0 37 6.0 WNW 41 54 22 29 1008.5 1008.5 0.0
23/05:00pm 15.1 4.3 -0.3 35 6.5 WNW 46 61 25 33 1007.5 1007.5 0.0
23/04:30pm 16.0 4.8 -0.6 32 7.0 WNW 48 76 26 41 1006.9 1006.9 0.0
23/04:00pm 16.7 5.0 -1.5 29 7.6 WNW 50 70 27 38 1006.1 1006.1 0.0
23/03:30pm 17.1 3.6 -2.3 26 8.0 WNW 59 82 32 44 1005.1 1005.1 0.0
23/03:00pm 17.7 3.9 -1.9 26 8.2 WNW 61 83 33 45 1004.8 1004.8 0.0

Latest Capital City Observations: Canberra | Sydney | Melbourne | Brisbane | Adelaide | Perth | Hobart | Darwin

Other Formats:

Comma delimited format used in spreadsheet applications
http://www.bom.gov.au/fwo/IDN60901/IDN60901.94776.axf

JavaScript Object Notation format (JSON) in row-major order
http://www.bom.gov.au/fwo/IDN60901/IDN60901.94776.json